createdAt,value
2018-12-26T00:00:45.417Z,21.25
2018-12-26T00:01:45.453Z,21.24
2018-12-26T00:02:46.886Z,21.12
2018-12-26T00:03:45.286Z,21.07
2018-12-26T00:04:45.252Z,21.12
2018-12-26T00:05:45.289Z,21.07
2018-12-26T00:06:45.150Z,21.06
2018-12-26T00:07:45.091Z,21.03
2018-12-26T00:08:45.053Z,21.06
2018-12-26T00:09:45.006Z,20.97
2018-12-26T00:10:44.960Z,21.05
2018-12-26T00:11:44.913Z,20.95
2018-12-26T00:12:44.886Z,21.03
2018-12-26T00:13:44.833Z,21.06
2018-12-26T00:14:44.774Z,21.05
2018-12-26T00:15:44.734Z,21.14
2018-12-26T00:16:44.685Z,20.93
2018-12-26T00:17:44.639Z,21.02
2018-12-26T00:18:44.656Z,21.07
2018-12-26T00:19:44.643Z,21.06
2018-12-26T00:20:44.486Z,21.05
2018-12-26T00:21:44.439Z,21.18
2018-12-26T00:22:44.406Z,21.02
2018-12-26T00:23:44.347Z,21.09
2018-12-26T00:24:44.300Z,21.09
2018-12-26T00:25:44.275Z,21.21
2018-12-26T00:26:44.228Z,21.07
2018-12-26T00:27:44.182Z,21.03
2018-12-26T00:28:44.121Z,21.07
2018-12-26T00:29:44.075Z,21.14
2018-12-26T00:30:44.042Z,21.09
2018-12-26T00:31:43.974Z,21.07
2018-12-26T00:32:43.940Z,21.14
2018-12-26T00:33:43.883Z,21.02
2018-12-26T00:34:43.834Z,21.07
2018-12-26T00:35:43.797Z,21.11
2018-12-26T00:36:43.748Z,21.06
2018-12-26T00:37:43.716Z,21.03
2018-12-26T00:38:43.655Z,21.03
2018-12-26T00:39:43.610Z,21.11
2018-12-26T00:40:43.555Z,21.02
2018-12-26T00:41:43.508Z,21.06
2018-12-26T00:42:43.483Z,20.96
2018-12-26T00:43:43.424Z,21.06
2018-12-26T00:44:43.390Z,21.05
2018-12-26T00:45:43.322Z,21.09
2018-12-26T00:46:43.276Z,21.05
2018-12-26T00:47:43.239Z,21.11
2018-12-26T00:48:43.191Z,21.06
2018-12-26T00:49:43.149Z,20.97
2018-12-26T00:50:43.103Z,21.03
2018-12-26T00:51:43.058Z,20.96
2018-12-26T00:52:43.019Z,20.96
2018-12-26T00:53:42.958Z,20.97
2018-12-26T00:54:42.913Z,20.99
2018-12-26T00:55:42.857Z,20.95
2018-12-26T00:56:42.818Z,20.97
2018-12-26T00:57:42.786Z,21.07
2018-12-26T00:58:42.726Z,20.97
2018-12-26T00:59:42.686Z,20.95
2018-12-26T01:00:42.637Z,20.97
2018-12-26T01:01:42.585Z,21.03
2018-12-26T01:02:42.544Z,20.97
2018-12-26T01:03:42.505Z,20.93
2018-12-26T01:04:42.451Z,20.96
2018-12-26T01:05:42.413Z,20.96
2018-12-26T01:06:42.368Z,20.96
2018-12-26T01:07:42.307Z,20.95
2018-12-26T01:08:42.264Z,20.93
2018-12-26T01:09:42.206Z,20.93
2018-12-26T01:10:42.180Z,21.02
2018-12-26T01:11:42.125Z,20.96
2018-12-26T01:12:42.078Z,21.00
2018-12-26T01:13:42.028Z,20.96
2018-12-26T01:14:41.973Z,20.96
2018-12-26T01:15:41.947Z,21.14
2018-12-26T01:16:41.900Z,21.09
2018-12-26T01:17:41.833Z,21.02
2018-12-26T01:18:41.799Z,21.14
2018-12-26T01:19:41.748Z,21.03
2018-12-26T01:20:41.706Z,21.06
2018-12-26T01:21:41.660Z,21.05
2018-12-26T01:22:41.614Z,21.00
2018-12-26T01:23:41.566Z,20.93
2018-12-26T01:24:41.514Z,20.85
2018-12-26T01:25:41.482Z,20.88
2018-12-26T01:26:41.424Z,20.87
2018-12-26T01:27:41.374Z,20.81
2018-12-26T01:28:41.321Z,20.88
2018-12-26T01:29:41.282Z,20.78
2018-12-26T01:30:41.241Z,20.72
2018-12-26T01:31:41.194Z,20.70
2018-12-26T01:32:41.148Z,20.78
2018-12-26T01:33:41.095Z,20.78
2018-12-26T01:34:41.050Z,20.74
2018-12-26T01:35:41.016Z,20.75
2018-12-26T01:36:40.949Z,20.81
2018-12-26T01:37:40.926Z,20.81
2018-12-26T01:38:40.864Z,20.81
2018-12-26T01:39:40.822Z,20.82
2018-12-26T01:40:40.763Z,20.84
2018-12-26T01:41:40.728Z,20.82
2018-12-26T01:42:40.682Z,20.74
2018-12-26T01:43:40.650Z,20.69
2018-12-26T01:44:40.577Z,20.77
2018-12-26T01:45:40.538Z,20.74
2018-12-26T01:46:40.486Z,20.82
2018-12-26T01:47:40.458Z,20.87
2018-12-26T01:48:40.397Z,20.80
2018-12-26T01:49:40.356Z,20.80
2018-12-26T01:50:40.309Z,20.78
2018-12-26T01:51:40.258Z,20.93
2018-12-26T01:52:40.220Z,20.93
2018-12-26T01:53:40.178Z,20.84
2018-12-26T01:54:40.128Z,20.78
2018-12-26T01:55:40.065Z,20.74
2018-12-26T01:56:40.026Z,20.66
2018-12-26T01:57:39.978Z,20.63
2018-12-26T01:58:39.946Z,20.51
2018-12-26T01:59:39.878Z,20.44
2018-12-26T02:00:39.844Z,20.51
2018-12-26T02:01:39.797Z,20.55
2018-12-26T02:02:39.745Z,20.47
2018-12-26T02:03:39.714Z,20.36
2018-12-26T02:04:39.662Z,20.40
2018-12-26T02:05:39.607Z,20.32
2018-12-26T02:06:39.559Z,20.31
2018-12-26T02:07:39.505Z,20.36
2018-12-26T02:08:39.466Z,20.48
2018-12-26T02:09:39.426Z,20.41
2018-12-26T02:10:39.386Z,20.36
2018-12-26T02:11:39.331Z,20.41
2018-12-26T02:12:39.295Z,20.37
2018-12-26T02:13:39.239Z,20.44
2018-12-26T02:14:39.191Z,20.47
2018-12-26T02:15:39.132Z,20.48
2018-12-26T02:16:39.085Z,20.43
2018-12-26T02:17:39.037Z,20.59
2018-12-26T02:18:39.004Z,20.69
2018-12-26T02:19:38.952Z,20.59
2018-12-26T02:20:38.910Z,20.60
2018-12-26T02:21:38.858Z,20.67
2018-12-26T02:22:38.804Z,20.65
2018-12-26T02:23:38.771Z,20.72
2018-12-26T02:24:38.732Z,20.66
2018-12-26T02:25:38.672Z,20.67
2018-12-26T02:26:38.625Z,20.63
2018-12-26T02:27:38.579Z,20.69
2018-12-26T02:28:38.545Z,20.66
2018-12-26T02:29:38.588Z,20.65
2018-12-26T02:30:38.432Z,20.59
2018-12-26T02:31:38.399Z,20.63
2018-12-26T02:32:38.350Z,20.63
2018-12-26T02:33:38.312Z,20.70
2018-12-26T02:34:38.244Z,20.63
2018-12-26T02:35:38.207Z,20.69
2018-12-26T02:36:38.154Z,20.65
2018-12-26T02:37:38.113Z,20.78
2018-12-26T02:38:38.088Z,20.58
2018-12-26T02:39:38.024Z,20.66
2018-12-26T02:40:37.965Z,20.66
2018-12-26T02:41:37.930Z,20.67
2018-12-26T02:42:37.894Z,20.60
2018-12-26T02:43:37.833Z,20.66
2018-12-26T02:44:37.791Z,20.56
2018-12-26T02:45:37.731Z,20.63
2018-12-26T02:46:37.695Z,20.55
2018-12-26T02:47:37.651Z,20.50
2018-12-26T02:48:37.601Z,20.58
2018-12-26T02:49:37.559Z,20.55
2018-12-26T02:50:37.498Z,20.58
2018-12-26T02:51:37.459Z,20.52
2018-12-26T02:52:37.405Z,20.55
2018-12-26T02:53:37.379Z,20.51
2018-12-26T02:54:37.313Z,20.51
2018-12-26T02:55:37.267Z,20.59
2018-12-26T02:56:46.154Z,20.62
2018-12-26T02:57:37.193Z,20.58
2018-12-26T02:58:37.135Z,20.58
2018-12-26T02:59:37.100Z,20.51
2018-12-26T03:00:37.041Z,20.52
2018-12-26T03:01:37.006Z,20.52
2018-12-26T03:02:36.938Z,20.44
2018-12-26T03:03:36.899Z,20.51
2018-12-26T03:04:36.858Z,20.44
2018-12-26T03:05:36.819Z,20.44
2018-12-26T03:06:36.759Z,20.52
2018-12-26T03:07:36.725Z,20.51
2018-12-26T03:08:36.679Z,20.59
2018-12-26T03:09:36.611Z,20.51
2018-12-26T03:10:36.587Z,20.56
2018-12-26T03:11:36.680Z,20.65
2018-12-26T03:12:36.484Z,20.63
2018-12-26T03:13:36.431Z,20.65
2018-12-26T03:14:36.378Z,20.67
2018-12-26T03:15:36.331Z,20.70
2018-12-26T03:16:36.296Z,20.72
2018-12-26T03:17:36.251Z,20.70
2018-12-26T03:18:36.284Z,20.70
2018-12-26T03:19:36.145Z,20.70
2018-12-26T03:20:36.099Z,20.72
2018-12-26T03:21:36.064Z,20.66
2018-12-26T03:22:36.013Z,20.63
2018-12-26T03:23:35.979Z,20.59
2018-12-26T03:24:35.927Z,20.62
2018-12-26T03:25:35.886Z,20.55
2018-12-26T03:26:35.827Z,20.58
2018-12-26T03:27:35.772Z,20.70
2018-12-26T03:28:35.738Z,20.65
2018-12-26T03:29:35.686Z,20.59
2018-12-26T03:30:35.645Z,20.56
2018-12-26T03:31:35.599Z,20.66
2018-12-26T03:32:35.548Z,20.62
2018-12-26T03:33:35.493Z,20.59
2018-12-26T03:34:35.446Z,20.62
2018-12-26T03:35:35.407Z,20.63
2018-12-26T03:36:35.354Z,20.63
2018-12-26T03:37:35.318Z,20.69
2018-12-26T03:38:35.272Z,20.70
2018-12-26T03:39:35.233Z,20.70
2018-12-26T03:40:35.319Z,20.65
2018-12-26T03:41:35.126Z,20.74
2018-12-26T03:42:35.093Z,20.72
2018-12-26T03:43:35.026Z,20.77
2018-12-26T03:44:35.024Z,20.72
2018-12-26T03:45:34.944Z,20.72
2018-12-26T03:46:34.899Z,20.66
2018-12-26T03:47:34.860Z,20.69
2018-12-26T03:48:34.800Z,20.67
2018-12-26T03:49:34.768Z,20.74
2018-12-26T03:50:34.700Z,20.65
2018-12-26T03:51:34.666Z,20.74
2018-12-26T03:52:34.673Z,20.65
2018-12-26T03:53:34.581Z,20.67
2018-12-26T03:54:34.535Z,20.66
2018-12-26T03:55:34.466Z,20.65
2018-12-26T03:56:34.430Z,20.70
2018-12-26T03:57:34.392Z,20.66
2018-12-26T03:58:34.327Z,20.62
2018-12-26T03:59:34.303Z,20.63
2018-12-26T04:00:34.247Z,20.69
2018-12-26T04:01:34.195Z,20.60
2018-12-26T04:02:34.161Z,20.62
2018-12-26T04:03:34.107Z,20.56
2018-12-26T04:04:34.060Z,20.48
2018-12-26T04:05:34.013Z,20.51
2018-12-26T04:06:33.967Z,20.43
2018-12-26T04:07:33.907Z,20.44
2018-12-26T04:08:33.869Z,20.48
2018-12-26T04:09:33.836Z,20.55
2018-12-26T04:10:33.772Z,20.51
2018-12-26T04:11:33.742Z,20.59
2018-12-26T04:12:33.689Z,20.55
2018-12-26T04:13:33.648Z,20.58
2018-12-26T04:14:33.601Z,20.58
2018-12-26T04:15:33.539Z,20.62
2018-12-26T04:16:33.495Z,20.43
2018-12-26T04:17:33.465Z,20.48
2018-12-26T04:18:33.403Z,20.50
2018-12-26T04:19:33.347Z,20.52
2018-12-26T04:20:33.301Z,20.56
2018-12-26T04:21:33.270Z,20.51
2018-12-26T04:22:33.229Z,20.37
2018-12-26T04:23:33.169Z,20.39
2018-12-26T04:24:33.135Z,20.31
2018-12-26T04:25:33.081Z,20.37
2018-12-26T04:26:33.034Z,20.29
2018-12-26T04:27:32.986Z,20.29
2018-12-26T04:28:32.928Z,20.22
2018-12-26T04:29:32.881Z,20.28
2018-12-26T04:30:32.834Z,20.28
2018-12-26T04:31:32.788Z,20.22
2018-12-26T04:32:32.740Z,20.26
2018-12-26T04:33:32.694Z,20.26
2018-12-26T04:34:32.671Z,20.24
2018-12-26T04:35:32.620Z,20.31
2018-12-26T04:36:32.574Z,20.34
2018-12-26T04:37:32.506Z,20.32
2018-12-26T04:38:32.471Z,20.19
2018-12-26T04:39:32.412Z,20.32
2018-12-26T04:40:32.387Z,20.21
2018-12-26T04:41:32.319Z,20.34
2018-12-26T04:42:32.279Z,20.32
2018-12-26T04:43:32.225Z,20.31
2018-12-26T04:44:32.191Z,20.29
2018-12-26T04:45:32.145Z,20.36
2018-12-26T04:46:32.106Z,20.32
2018-12-26T04:47:32.038Z,20.32
2018-12-26T04:48:32.005Z,20.39
2018-12-26T04:49:31.966Z,20.37
2018-12-26T04:50:31.905Z,20.43
2018-12-26T04:51:31.859Z,20.41
2018-12-26T04:52:31.817Z,20.44
2018-12-26T04:53:31.758Z,20.55
2018-12-26T04:54:31.725Z,20.52
2018-12-26T04:55:31.665Z,20.47
2018-12-26T04:56:31.617Z,20.44
2018-12-26T04:57:31.579Z,20.52
2018-12-26T04:58:31.531Z,20.50
2018-12-26T04:59:31.490Z,20.60
2018-12-26T05:00:31.444Z,20.63
2018-12-26T05:01:31.397Z,20.66
2018-12-26T05:02:31.350Z,20.63
2018-12-26T05:03:31.298Z,20.65
2018-12-26T05:04:31.244Z,20.67
2018-12-26T05:05:31.197Z,20.66
2018-12-26T05:06:31.172Z,20.66
2018-12-26T05:07:31.113Z,20.63
2018-12-26T05:08:31.057Z,20.60
2018-12-26T05:09:31.010Z,20.44
2018-12-26T05:10:30.978Z,20.47
2018-12-26T05:11:30.917Z,20.50
2018-12-26T05:12:30.884Z,20.55
2018-12-26T05:13:30.845Z,20.52
2018-12-26T05:14:30.790Z,20.66
2018-12-26T05:15:30.751Z,20.55
2018-12-26T05:16:30.706Z,20.52
2018-12-26T05:17:30.665Z,20.52
2018-12-26T05:18:30.603Z,20.51
2018-12-26T05:19:30.557Z,20.56
2018-12-26T05:20:30.519Z,20.47
2018-12-26T05:21:30.463Z,20.48
2018-12-26T05:22:30.416Z,20.51
2018-12-26T05:23:30.368Z,20.51
2018-12-26T05:24:30.324Z,20.51
2018-12-26T05:25:30.285Z,20.47
2018-12-26T05:26:30.226Z,20.50
2018-12-26T05:27:34.392Z,20.51
2018-12-26T05:28:30.154Z,20.51
2018-12-26T05:29:30.077Z,20.58
2018-12-26T05:30:30.030Z,20.56
2018-12-26T05:31:29.985Z,20.43
2018-12-26T05:32:29.945Z,20.55
2018-12-26T05:33:29.890Z,20.44
2018-12-26T05:34:29.852Z,20.44
2018-12-26T05:35:29.822Z,20.40
2018-12-26T05:36:29.762Z,20.44
2018-12-26T05:37:29.712Z,20.43
2018-12-26T05:38:29.657Z,20.40
2018-12-26T05:39:29.620Z,20.44
2018-12-26T05:40:29.577Z,20.59
2018-12-26T05:41:29.518Z,20.43
2018-12-26T05:42:29.470Z,20.56
2018-12-26T05:43:29.445Z,20.56
2018-12-26T05:44:29.385Z,20.62
2018-12-26T05:45:29.330Z,20.55
2018-12-26T05:46:29.296Z,20.67
2018-12-26T05:47:29.237Z,20.75
2018-12-26T05:48:29.191Z,20.66
2018-12-26T05:49:29.165Z,20.72
2018-12-26T05:50:29.104Z,20.67
2018-12-26T05:51:29.058Z,20.66
2018-12-26T05:52:29.025Z,20.62
2018-12-26T05:53:28.992Z,20.63
2018-12-26T05:54:28.918Z,20.65
2018-12-26T05:55:28.885Z,20.59
2018-12-26T05:56:28.825Z,20.52
2018-12-26T05:57:28.779Z,20.52
2018-12-26T05:58:28.731Z,20.50
2018-12-26T05:59:28.677Z,20.44
2018-12-26T06:00:28.640Z,20.58
2018-12-26T06:01:28.585Z,20.48
2018-12-26T06:02:28.538Z,20.44
2018-12-26T06:03:28.500Z,20.47
2018-12-26T06:04:28.457Z,20.43
2018-12-26T06:05:28.398Z,20.41
2018-12-26T06:06:28.418Z,20.48
2018-12-26T06:07:28.326Z,20.48
2018-12-26T06:08:28.279Z,20.55
2018-12-26T06:09:28.225Z,20.47
2018-12-26T06:10:28.177Z,20.43
2018-12-26T06:11:28.125Z,20.50
2018-12-26T06:12:28.078Z,20.44
2018-12-26T06:13:28.041Z,20.58
2018-12-26T06:14:27.977Z,20.43
2018-12-26T06:15:27.939Z,20.50
2018-12-26T06:16:27.906Z,20.51
2018-12-26T06:17:27.845Z,20.48
2018-12-26T06:18:27.798Z,20.48
2018-12-26T06:19:27.766Z,20.48
2018-12-26T06:20:27.712Z,20.51
2018-12-26T06:21:27.651Z,20.44
2018-12-26T06:22:27.625Z,20.50
2018-12-26T06:23:27.565Z,20.47
2018-12-26T06:24:27.526Z,20.40
2018-12-26T06:25:27.475Z,20.34
2018-12-26T06:26:27.440Z,20.25
2018-12-26T06:27:27.384Z,20.28
2018-12-26T06:28:27.337Z,20.26
2018-12-26T06:29:27.292Z,20.29
2018-12-26T06:30:27.254Z,20.28
2018-12-26T06:31:27.196Z,20.25
2018-12-26T06:32:27.150Z,20.21
2018-12-26T06:33:27.112Z,20.22
2018-12-26T06:34:27.066Z,20.31
2018-12-26T06:35:27.004Z,20.28
2018-12-26T06:36:26.952Z,20.19
2018-12-26T06:37:26.904Z,20.29
2018-12-26T06:38:26.857Z,20.25
2018-12-26T06:39:26.831Z,20.19
2018-12-26T06:40:26.778Z,20.26
2018-12-26T06:41:26.739Z,20.26
2018-12-26T06:42:26.683Z,20.24
2018-12-26T06:43:26.625Z,20.14
2018-12-26T06:44:26.578Z,20.21
2018-12-26T06:45:26.537Z,20.18
2018-12-26T06:46:26.505Z,20.14
2018-12-26T06:47:26.457Z,20.11
2018-12-26T06:48:26.403Z,20.13
2018-12-26T06:49:26.342Z,20.10
2018-12-26T06:50:26.328Z,19.99
2018-12-26T06:51:26.270Z,20.06
2018-12-26T06:52:26.215Z,20.03
2018-12-26T06:53:26.168Z,20.06
2018-12-26T06:54:26.109Z,19.92
2018-12-26T06:55:26.074Z,19.94
2018-12-26T06:56:26.028Z,19.96
2018-12-26T06:57:25.968Z,20.02
2018-12-26T06:58:25.921Z,19.99
2018-12-26T06:59:25.882Z,20.03
2018-12-26T07:00:25.840Z,20.09
2018-12-26T07:01:25.780Z,20.06
2018-12-26T07:02:25.746Z,19.99
2018-12-26T07:03:26.134Z,20.09
2018-12-26T07:04:25.693Z,20.03
2018-12-26T07:05:25.603Z,20.04
2018-12-26T07:06:25.550Z,20.16
2018-12-26T07:07:25.508Z,20.16
2018-12-26T07:08:25.453Z,20.16
2018-12-26T07:09:25.419Z,20.11
2018-12-26T07:10:25.380Z,20.14
2018-12-26T07:11:25.320Z,20.09
2018-12-26T07:12:25.278Z,20.00
2018-12-26T07:13:25.240Z,20.14
2018-12-26T07:14:25.193Z,20.10
2018-12-26T07:15:25.137Z,20.13
2018-12-26T07:16:25.092Z,20.07
2018-12-26T07:17:25.055Z,20.02
2018-12-26T07:18:24.997Z,20.03
2018-12-26T07:19:24.945Z,19.84
2018-12-26T07:20:24.904Z,19.82
2018-12-26T07:21:24.865Z,19.81
2018-12-26T07:22:24.818Z,19.70
2018-12-26T07:23:24.773Z,19.74
2018-12-26T07:24:24.725Z,19.73
2018-12-26T07:25:24.656Z,19.71
2018-12-26T07:26:24.624Z,19.81
2018-12-26T07:27:24.577Z,19.79
2018-12-26T07:28:24.515Z,19.76
2018-12-26T07:29:24.493Z,19.81
2018-12-26T07:30:24.431Z,19.84
2018-12-26T07:31:24.375Z,19.91
2018-12-26T07:32:24.340Z,19.91
2018-12-26T07:33:24.302Z,20.00
2018-12-26T07:34:24.241Z,19.99
2018-12-26T07:35:24.196Z,20.06
2018-12-26T07:36:24.140Z,20.00
2018-12-26T07:37:24.118Z,19.99
2018-12-26T07:38:24.067Z,19.96
2018-12-26T07:39:24.021Z,20.02
2018-12-26T07:40:23.954Z,20.00
2018-12-26T07:41:23.923Z,20.04
2018-12-26T07:42:23.859Z,20.06
2018-12-26T07:43:23.813Z,20.03
2018-12-26T07:44:23.765Z,19.92
2018-12-26T07:45:23.739Z,19.82
2018-12-26T07:46:23.684Z,19.89
2018-12-26T07:47:23.624Z,19.85
2018-12-26T07:48:23.585Z,19.88
2018-12-26T07:49:23.543Z,19.84
2018-12-26T07:50:23.496Z,19.69
2018-12-26T07:51:23.438Z,19.81
2018-12-26T07:52:23.411Z,19.79
2018-12-26T07:53:23.343Z,19.71
2018-12-26T07:54:23.296Z,19.77
2018-12-26T07:55:23.269Z,19.82
2018-12-26T07:56:23.216Z,19.86
2018-12-26T07:57:23.181Z,19.92
2018-12-26T07:58:23.108Z,19.92
2018-12-26T07:59:23.084Z,19.88
2018-12-26T08:00:23.022Z,19.99
2018-12-26T08:01:22.981Z,20.00
2018-12-26T08:02:22.928Z,20.07
2018-12-26T08:03:22.895Z,20.07
2018-12-26T08:04:22.827Z,20.04
2018-12-26T08:05:22.793Z,20.06
2018-12-26T08:06:22.746Z,20.04
2018-12-26T08:07:22.699Z,20.07
2018-12-26T08:08:22.652Z,19.99
2018-12-26T08:09:22.618Z,20.04
2018-12-26T08:10:22.547Z,19.88
2018-12-26T08:11:22.498Z,19.92
2018-12-26T08:12:22.464Z,19.91
2018-12-26T08:13:22.414Z,20.00
2018-12-26T08:14:22.366Z,19.81
2018-12-26T08:15:22.324Z,19.86
2018-12-26T08:16:22.285Z,19.84
2018-12-26T08:17:22.225Z,19.88
2018-12-26T08:18:22.170Z,19.85
2018-12-26T08:19:22.123Z,19.82
2018-12-26T08:20:22.076Z,19.79
2018-12-26T08:21:22.050Z,19.85
2018-12-26T08:22:21.982Z,19.82
2018-12-26T08:23:21.936Z,19.85
2018-12-26T08:24:21.910Z,19.85
2018-12-26T08:25:21.841Z,20.00
2018-12-26T08:26:21.806Z,19.91
2018-12-26T08:27:21.756Z,19.95
2018-12-26T08:28:26.579Z,19.89
2018-12-26T08:29:21.661Z,19.94
2018-12-26T08:30:21.628Z,19.95
2018-12-26T08:31:21.568Z,19.94
2018-12-26T08:32:21.526Z,19.95
2018-12-26T08:33:21.492Z,20.04
2018-12-26T08:34:21.429Z,20.04
2018-12-26T08:35:21.483Z,19.96
2018-12-26T08:36:21.347Z,20.04
2018-12-26T08:37:21.292Z,19.99
2018-12-26T08:38:21.239Z,19.92
2018-12-26T08:39:21.212Z,19.88
2018-12-26T08:40:21.138Z,19.88
2018-12-26T08:41:21.108Z,20.06
2018-12-26T08:42:21.065Z,19.95
2018-12-26T08:43:20.997Z,20.03
2018-12-26T08:44:20.958Z,19.99
2018-12-26T08:45:20.917Z,20.07
2018-12-26T08:46:20.864Z,20.14
2018-12-26T08:47:20.823Z,20.14
2018-12-26T08:48:20.771Z,20.19
2018-12-26T08:49:20.723Z,20.31
2018-12-26T08:50:20.677Z,20.25
2018-12-26T08:51:20.639Z,20.22
2018-12-26T08:52:20.598Z,20.22
2018-12-26T08:53:20.530Z,20.31
2018-12-26T08:54:20.504Z,20.58
2018-12-26T08:55:20.445Z,20.85
2018-12-26T08:56:20.398Z,21.25
2018-12-26T08:57:20.351Z,21.43
2018-12-26T08:58:20.311Z,21.52
2018-12-26T08:59:20.273Z,21.61
2018-12-26T09:00:20.227Z,21.73
2018-12-26T09:01:20.211Z,21.77
2018-12-26T09:02:20.136Z,21.85
2018-12-26T09:03:20.090Z,21.98
2018-12-26T09:04:20.023Z,21.98
2018-12-26T09:05:19.977Z,21.92
2018-12-26T09:06:19.953Z,21.89
2018-12-26T09:07:19.899Z,21.79
2018-12-26T09:08:19.862Z,21.75
2018-12-26T09:09:19.808Z,21.72
2018-12-26T09:10:19.773Z,21.72
2018-12-26T09:11:19.704Z,21.67
2018-12-26T09:12:19.659Z,21.82
2018-12-26T09:13:19.626Z,22.23
2018-12-26T09:14:19.590Z,22.47
2018-12-26T09:15:19.524Z,22.63
2018-12-26T09:16:19.478Z,22.76
2018-12-26T09:17:19.455Z,23.00
2018-12-26T09:18:19.389Z,23.03
2018-12-26T09:19:19.361Z,22.85
2018-12-26T09:20:19.321Z,22.85
2018-12-26T09:21:19.268Z,22.68
2018-12-26T09:22:19.223Z,22.51
2018-12-26T09:23:19.167Z,22.53
2018-12-26T09:24:19.143Z,22.53
2018-12-26T09:25:19.078Z,22.70
2018-12-26T09:26:19.050Z,22.94
2018-12-26T09:27:19.011Z,23.28
2018-12-26T09:28:18.957Z,23.47
2018-12-26T09:29:18.917Z,23.68
2018-12-26T09:30:18.866Z,23.63
2018-12-26T09:31:18.834Z,23.55
2018-12-26T09:32:18.919Z,23.46
2018-12-26T09:33:18.738Z,23.46
2018-12-26T09:34:18.694Z,23.65
2018-12-26T09:35:20.895Z,23.65
2018-12-26T09:36:18.603Z,23.62
2018-12-26T09:37:18.553Z,23.54
2018-12-26T09:38:18.514Z,23.73
2018-12-26T09:39:18.484Z,23.80
2018-12-26T09:40:18.436Z,23.84
2018-12-26T09:41:18.385Z,23.66
2018-12-26T09:42:18.355Z,23.83
2018-12-26T09:43:18.299Z,24.36
2018-12-26T09:44:18.269Z,24.74
2018-12-26T09:45:18.213Z,25.04
2018-12-26T09:46:18.177Z,25.16
2018-12-26T09:47:18.135Z,24.88
2018-12-26T09:48:18.079Z,24.60
2018-12-26T09:49:18.045Z,24.40
2018-12-26T09:50:18.004Z,24.08
2018-12-26T09:51:17.953Z,23.92
2018-12-26T09:52:17.931Z,23.66
2018-12-26T09:53:17.876Z,23.32
2018-12-26T09:54:17.837Z,22.96
2018-12-26T09:55:17.803Z,22.78
2018-12-26T09:56:17.760Z,22.53
2018-12-26T09:57:17.717Z,22.43
2018-12-26T09:58:17.651Z,22.29
2018-12-26T09:59:17.608Z,22.07
2018-12-26T10:00:17.572Z,21.98
2018-12-26T10:01:17.541Z,21.85
2018-12-26T10:02:17.498Z,21.88
2018-12-26T10:03:17.453Z,21.89
2018-12-26T10:04:17.387Z,21.88
2018-12-26T10:05:17.343Z,21.88
2018-12-26T10:06:17.319Z,21.91
2018-12-26T10:07:17.253Z,21.85
2018-12-26T10:08:17.230Z,21.82
2018-12-26T10:09:17.167Z,21.66
2018-12-26T10:10:17.140Z,21.70
2018-12-26T10:11:17.073Z,21.73
2018-12-26T10:12:17.029Z,21.61
2018-12-26T10:13:16.992Z,21.55
2018-12-26T10:14:16.938Z,21.46
2018-12-26T10:15:16.896Z,21.60
2018-12-26T10:16:16.855Z,21.55
2018-12-26T10:17:16.815Z,21.58
2018-12-26T10:18:16.757Z,21.61
2018-12-26T10:19:16.725Z,21.64
2018-12-26T10:20:16.667Z,21.64
2018-12-26T10:21:16.634Z,21.62
2018-12-26T10:22:16.583Z,21.72
2018-12-26T10:23:16.551Z,21.83
2018-12-26T10:24:16.484Z,21.89
2018-12-26T10:25:16.452Z,21.88
2018-12-26T10:26:16.407Z,21.72
2018-12-26T10:27:16.356Z,21.75
2018-12-26T10:28:16.311Z,21.83
2018-12-26T10:29:16.256Z,21.64
2018-12-26T10:30:16.224Z,21.61
2018-12-26T10:31:16.179Z,21.52
2018-12-26T10:32:16.141Z,21.40
2018-12-26T10:33:16.074Z,21.43
2018-12-26T10:34:16.029Z,21.27
2018-12-26T10:35:16.005Z,21.27
2018-12-26T10:36:15.959Z,21.30
2018-12-26T10:37:15.913Z,21.32
2018-12-26T10:38:15.905Z,21.27
2018-12-26T10:39:15.821Z,21.30
2018-12-26T10:40:15.761Z,21.24
2018-12-26T10:41:15.716Z,21.42
2018-12-26T10:42:15.671Z,21.35
2018-12-26T10:43:15.629Z,21.37
2018-12-26T10:44:15.570Z,21.42
2018-12-26T10:45:15.531Z,21.51
2018-12-26T10:46:15.499Z,21.52
2018-12-26T10:47:15.432Z,21.62
2018-12-26T10:48:15.386Z,21.60
2018-12-26T10:49:15.354Z,21.72
2018-12-26T10:50:15.295Z,21.76
2018-12-26T10:51:15.249Z,21.77
2018-12-26T10:52:15.216Z,21.89
2018-12-26T10:53:15.158Z,21.92
2018-12-26T10:54:15.133Z,21.89
2018-12-26T10:55:15.087Z,21.93
2018-12-26T10:56:15.041Z,21.83
2018-12-26T10:57:14.982Z,21.93
2018-12-26T10:58:14.928Z,21.99
2018-12-26T10:59:14.891Z,22.10
2018-12-26T11:00:14.898Z,21.96
2018-12-26T11:01:14.804Z,21.93
2018-12-26T11:02:14.833Z,21.85
2018-12-26T11:03:14.712Z,21.91
2018-12-26T11:04:14.675Z,21.91
2018-12-26T11:05:14.615Z,21.85
2018-12-26T11:06:14.577Z,21.93
2018-12-26T11:07:14.525Z,22.06
2018-12-26T11:08:14.492Z,22.23
2018-12-26T11:09:14.550Z,22.22
2018-12-26T11:10:14.393Z,22.32
2018-12-26T11:11:14.343Z,22.26
2018-12-26T11:12:14.297Z,22.23
2018-12-26T11:13:14.256Z,22.30
2018-12-26T11:14:14.198Z,22.30
2018-12-26T11:15:14.174Z,22.33
2018-12-26T11:16:14.128Z,22.39
2018-12-26T11:17:14.062Z,22.57
2018-12-26T11:18:14.037Z,22.63
2018-12-26T11:19:13.975Z,22.70
2018-12-26T11:20:13.935Z,22.72
2018-12-26T11:21:13.901Z,22.69
2018-12-26T11:22:13.842Z,22.70
2018-12-26T11:23:13.811Z,22.59
2018-12-26T11:24:13.759Z,22.66
2018-12-26T11:25:13.699Z,22.69
2018-12-26T11:26:13.654Z,22.87
2018-12-26T11:27:13.609Z,23.00
2018-12-26T11:28:13.585Z,23.15
2018-12-26T11:29:18.500Z,23.46
2018-12-26T11:30:13.482Z,23.43
2018-12-26T11:31:13.437Z,23.43
2018-12-26T11:32:13.396Z,23.56
2018-12-26T11:33:13.406Z,23.61
2018-12-26T11:34:13.294Z,23.62
2018-12-26T11:35:13.262Z,23.69
2018-12-26T11:36:13.204Z,23.62
2018-12-26T11:37:13.160Z,23.63
2018-12-26T11:38:13.117Z,23.65
2018-12-26T11:39:13.084Z,23.69
2018-12-26T11:40:13.036Z,23.68
2018-12-26T11:41:13.003Z,23.66
2018-12-26T11:42:12.945Z,23.66
2018-12-26T11:43:12.914Z,23.80
2018-12-26T11:44:12.849Z,23.83
2018-12-26T11:45:12.811Z,23.83
2018-12-26T11:46:12.773Z,23.80
2018-12-26T11:47:12.714Z,23.76
2018-12-26T11:48:12.683Z,23.83
2018-12-26T11:49:12.639Z,23.86
2018-12-26T11:50:12.603Z,23.98
2018-12-26T11:51:12.554Z,23.98
2018-12-26T11:52:12.506Z,23.96
2018-12-26T11:53:12.461Z,24.06
2018-12-26T11:54:12.404Z,24.14
2018-12-26T11:55:12.381Z,24.18
2018-12-26T11:56:12.317Z,24.24
2018-12-26T11:57:12.270Z,24.35
2018-12-26T11:58:12.235Z,24.47
2018-12-26T11:59:12.184Z,24.47
2018-12-26T12:00:12.138Z,24.47
2018-12-26T12:01:12.102Z,24.54
2018-12-26T12:02:20.396Z,24.68
2018-12-26T12:03:12.013Z,24.74
2018-12-26T12:04:11.982Z,24.74
2018-12-26T12:05:11.925Z,24.77
2018-12-26T12:06:11.879Z,24.77
2018-12-26T12:07:11.835Z,24.63
2018-12-26T12:08:11.798Z,24.61
2018-12-26T12:09:11.755Z,24.70
2018-12-26T12:10:11.696Z,24.70
2018-12-26T12:11:11.660Z,24.76
2018-12-26T12:12:11.629Z,24.80
2018-12-26T12:13:11.573Z,24.69
2018-12-26T12:14:11.528Z,24.74
2018-12-26T12:15:11.497Z,24.61
2018-12-26T12:16:11.443Z,24.73
2018-12-26T12:17:11.396Z,24.74
2018-12-26T12:18:11.353Z,24.85
2018-12-26T12:19:11.307Z,24.88
2018-12-26T12:20:11.264Z,24.96
2018-12-26T12:21:11.215Z,24.93
2018-12-26T12:22:11.168Z,25.06
2018-12-26T12:23:11.123Z,25.16
2018-12-26T12:24:11.093Z,25.16
2018-12-26T12:25:11.036Z,25.31
2018-12-26T12:26:11.013Z,25.32
2018-12-26T12:27:10.948Z,25.35
2018-12-26T12:28:10.917Z,25.38
2018-12-26T12:29:10.882Z,25.44
2018-12-26T12:30:10.817Z,25.55
2018-12-26T12:31:10.773Z,25.65
2018-12-26T12:32:10.742Z,25.63
2018-12-26T12:33:10.695Z,25.72
2018-12-26T12:34:10.664Z,25.80
2018-12-26T12:35:10.598Z,25.69
2018-12-26T12:36:10.554Z,25.69
2018-12-26T12:37:10.532Z,25.77
2018-12-26T12:38:10.476Z,25.87
2018-12-26T12:39:10.445Z,25.63
2018-12-26T12:40:10.402Z,25.41
2018-12-26T12:41:10.346Z,25.35
2018-12-26T12:42:10.306Z,25.32
2018-12-26T12:43:10.262Z,25.35
2018-12-26T12:44:10.227Z,25.31
2018-12-26T12:45:10.657Z,25.26
2018-12-26T12:46:10.129Z,25.06
2018-12-26T12:47:10.089Z,24.77
2018-12-26T12:48:10.039Z,24.77
2018-12-26T12:49:09.995Z,24.92
2018-12-26T12:50:09.951Z,24.95
2018-12-26T12:51:09.923Z,24.96
2018-12-26T12:52:09.863Z,25.06